createdAt,value
2019-01-04T00:00:13.585Z,99.90
2019-01-04T00:02:42.022Z,99.90
2019-01-04T00:05:10.758Z,99.90
2019-01-04T00:07:39.205Z,99.90
2019-01-04T00:10:07.662Z,99.90
2019-01-04T00:12:36.115Z,99.90
2019-01-04T00:15:05.587Z,99.90
2019-01-04T00:17:34.105Z,99.90
2019-01-04T00:20:02.613Z,99.90
2019-01-04T00:22:31.106Z,99.90
2019-01-04T00:24:59.561Z,99.90
2019-01-04T00:27:28.083Z,99.90
2019-01-04T00:29:56.538Z,99.90
2019-01-04T00:32:24.997Z,99.90
2019-01-04T00:34:53.806Z,99.90
2019-01-04T00:37:22.248Z,99.90
2019-01-04T00:39:50.762Z,99.90
2019-01-04T00:42:19.225Z,99.90
2019-01-04T00:44:47.670Z,99.90
2019-01-04T00:47:16.125Z,99.90
2019-01-04T00:49:44.573Z,99.90
2019-01-04T00:52:13.014Z,99.90
2019-01-04T00:54:41.546Z,99.90
2019-01-04T00:57:24.813Z,99.90
2019-01-04T01:00:29.740Z,99.90
2019-01-04T01:03:33.378Z,99.90
2019-01-04T01:06:30.857Z,99.90
2019-01-04T01:09:11.371Z,99.90
2019-01-04T01:11:48.973Z,99.90
2019-01-04T01:14:54.141Z,99.90
2019-01-04T01:17:51.542Z,99.90
2019-01-04T01:20:31.729Z,99.90
2019-01-04T01:23:28.938Z,99.90
2019-01-04T01:26:20.270Z,99.90
2019-01-04T01:29:03.708Z,99.90
2019-01-04T01:32:00.818Z,99.90
2019-01-04T01:34:50.265Z,99.90
2019-01-04T01:37:42.985Z,99.90
2019-01-04T01:40:31.247Z,99.90
2019-01-04T01:43:31.221Z,99.90
2019-01-04T01:46:23.390Z,99.90
2019-01-04T01:48:57.958Z,99.90
2019-01-04T01:51:32.409Z,99.90
2019-01-04T01:54:00.857Z,99.90
2019-01-04T01:56:29.313Z,99.90
2019-01-04T01:58:57.779Z,99.90
2019-01-04T02:01:26.299Z,99.90
2019-01-04T02:03:54.757Z,99.90
2019-01-04T02:06:23.283Z,99.90
2019-01-04T02:08:51.724Z,99.90
2019-01-04T02:11:20.188Z,99.90
2019-01-04T02:13:48.629Z,99.90
2019-01-04T02:16:17.086Z,99.90
2019-01-04T02:18:45.543Z,99.90
2019-01-04T02:21:13.986Z,99.90
2019-01-04T02:23:42.441Z,99.90
2019-01-04T02:26:10.880Z,99.90
2019-01-04T02:28:39.348Z,99.90
2019-01-04T02:31:07.781Z,99.90
2019-01-04T02:33:36.250Z,99.90
2019-01-04T02:36:04.709Z,99.90
2019-01-04T02:38:33.166Z,99.90
2019-01-04T02:41:01.625Z,99.90
2019-01-04T02:43:30.082Z,99.90
2019-01-04T02:45:58.553Z,99.90
2019-01-04T02:48:27.016Z,99.90
2019-01-04T02:50:55.470Z,99.90
2019-01-04T02:53:23.910Z,99.90
2019-01-04T02:55:52.372Z,99.90
2019-01-04T02:58:20.820Z,99.90
2019-01-04T03:00:49.337Z,99.90
2019-01-04T03:03:17.797Z,99.90
2019-01-04T03:05:46.253Z,99.90
2019-01-04T03:08:14.707Z,99.90
2019-01-04T03:10:43.178Z,99.90
2019-01-04T03:13:11.706Z,99.90
2019-01-04T03:15:40.162Z,99.90
2019-01-04T03:18:08.678Z,99.90
2019-01-04T03:20:37.177Z,99.90
2019-01-04T03:23:05.646Z,99.90
2019-01-04T03:25:34.166Z,99.90
2019-01-04T03:28:02.629Z,99.90
2019-01-04T03:30:31.177Z,99.90
2019-01-04T03:32:59.685Z,99.90
2019-01-04T03:35:28.175Z,99.90
2019-01-04T03:37:56.669Z,99.90
2019-01-04T03:40:25.132Z,99.90
2019-01-04T03:42:53.627Z,99.90
2019-01-04T03:45:22.310Z,99.90
2019-01-04T03:47:50.899Z,99.90
2019-01-04T03:50:19.598Z,99.90
2019-01-04T03:52:48.067Z,99.90
2019-01-04T03:55:16.510Z,99.90
2019-01-04T03:57:44.964Z,99.90
2019-01-04T04:00:13.435Z,99.90
2019-01-04T04:02:41.882Z,99.90
2019-01-04T04:05:10.353Z,99.90
2019-01-04T04:07:38.799Z,99.90
2019-01-04T04:10:08.071Z,99.90
2019-01-04T04:12:36.517Z,99.90
2019-01-04T04:15:05.545Z,99.90
2019-01-04T04:17:34.040Z,99.90
2019-01-04T04:20:02.720Z,99.90
2019-01-04T04:22:31.243Z,99.90
2019-01-04T04:24:59.689Z,99.90
2019-01-04T04:27:28.142Z,99.90
2019-01-04T04:29:56.600Z,99.90
2019-01-04T04:32:25.058Z,99.90
2019-01-04T04:34:53.513Z,99.90
2019-01-04T04:37:21.970Z,99.90
2019-01-04T04:39:50.489Z,99.90
2019-01-04T04:42:18.929Z,99.90
2019-01-04T04:44:47.398Z,99.90
2019-01-04T04:47:15.843Z,99.90
2019-01-04T04:49:44.314Z,99.90
2019-01-04T04:52:12.769Z,99.90
2019-01-04T04:54:41.230Z,99.90
2019-01-04T04:57:09.767Z,99.90
2019-01-04T04:59:38.214Z,99.90
2019-01-04T05:02:06.674Z,99.90
2019-01-04T05:04:35.126Z,99.90
2019-01-04T05:07:03.599Z,99.90
2019-01-04T05:09:32.126Z,99.90
2019-01-04T05:12:00.570Z,99.90
2019-01-04T05:14:29.034Z,99.90
2019-01-04T05:16:57.498Z,99.90
2019-01-04T05:19:25.954Z,99.90
2019-01-04T05:21:54.423Z,99.90
2019-01-04T05:24:22.878Z,99.90
2019-01-04T05:26:51.339Z,99.90
2019-01-04T05:29:19.781Z,99.90
2019-01-04T05:31:48.241Z,99.90
2019-01-04T05:34:16.704Z,99.90
2019-01-04T05:36:45.146Z,99.90
2019-01-04T05:39:13.608Z,99.90
2019-01-04T05:41:42.058Z,99.90
2019-01-04T05:44:10.594Z,99.90
2019-01-04T05:46:39.045Z,99.90
2019-01-04T05:49:07.502Z,99.90
2019-01-04T05:51:35.947Z,99.90
2019-01-04T05:54:04.425Z,99.90
2019-01-04T05:56:32.862Z,99.90
2019-01-04T05:59:01.306Z,99.90
2019-01-04T06:01:29.790Z,99.90
2019-01-04T06:03:58.291Z,99.90
2019-01-04T06:06:26.755Z,99.90
2019-01-04T06:08:55.269Z,99.90
2019-01-04T06:11:23.724Z,99.90
2019-01-04T06:13:52.165Z,99.90
2019-01-04T06:16:20.622Z,99.90
2019-01-04T06:18:49.075Z,99.90
2019-01-04T06:21:17.534Z,99.90
2019-01-04T06:23:45.975Z,99.90
2019-01-04T06:26:14.429Z,99.90
2019-01-04T06:28:42.877Z,99.90
2019-01-04T06:31:11.342Z,99.90
2019-01-04T06:33:39.814Z,99.90
2019-01-04T06:36:08.266Z,99.90
2019-01-04T06:38:36.739Z,99.90
2019-01-04T06:41:05.197Z,99.90
2019-01-04T06:43:33.733Z,99.90
2019-01-04T06:46:02.193Z,99.90
2019-01-04T06:48:30.649Z,99.90
2019-01-04T06:50:59.093Z,99.90
2019-01-04T06:53:27.553Z,99.90
2019-01-04T06:55:56.073Z,99.90
2019-01-04T06:58:24.527Z,99.90
2019-01-04T07:00:53.033Z,99.90
2019-01-04T07:03:21.497Z,99.90
2019-01-04T07:05:49.961Z,99.90
2019-01-04T07:08:18.410Z,99.90
2019-01-04T07:10:46.882Z,99.90
2019-01-04T07:13:15.322Z,99.90
2019-01-04T07:15:43.770Z,99.90
2019-01-04T07:18:12.225Z,99.90
2019-01-04T07:20:40.689Z,99.60
2019-01-04T07:23:09.146Z,95.40
2019-01-04T07:25:37.661Z,95.00
2019-01-04T07:28:06.121Z,91.30
2019-01-04T07:30:34.565Z,93.00
2019-01-04T07:33:03.098Z,89.60
2019-01-04T07:35:31.556Z,92.10
2019-01-04T07:37:59.997Z,90.10
2019-01-04T07:40:28.453Z,89.10
2019-01-04T07:42:56.903Z,78.30
2019-01-04T07:45:25.354Z,82.80
2019-01-04T07:47:53.811Z,72.80
2019-01-04T07:50:22.285Z,71.40
2019-01-04T07:52:50.733Z,70.00
2019-01-04T07:55:19.181Z,72.00
2019-01-04T07:57:47.633Z,70.80
2019-01-04T08:00:16.158Z,73.70
2019-01-04T08:02:44.994Z,71.20
2019-01-04T08:05:15.846Z,73.30
2019-01-04T08:07:44.305Z,67.60
2019-01-04T08:10:12.954Z,65.30
2019-01-04T08:12:41.544Z,61.20
2019-01-04T08:15:11.135Z,60.00
2019-01-04T08:17:39.587Z,61.30
2019-01-04T08:20:10.066Z,62.50
2019-01-04T08:22:38.598Z,59.60
2019-01-04T08:25:08.171Z,58.80
2019-01-04T08:27:36.618Z,58.90
2019-01-04T08:30:08.198Z,58.20
2019-01-04T08:32:36.725Z,59.10
2019-01-04T08:35:05.627Z,59.10
2019-01-04T08:37:34.065Z,59.00
2019-01-04T08:40:02.877Z,59.80
2019-01-04T08:42:31.356Z,59.70
2019-01-04T08:44:59.809Z,58.50
2019-01-04T08:47:28.262Z,56.70
2019-01-04T08:49:56.702Z,57.50
2019-01-04T08:52:25.142Z,57.60
2019-01-04T08:54:53.630Z,56.60
2019-01-04T08:57:22.129Z,56.40
2019-01-04T08:59:50.577Z,53.70
2019-01-04T09:02:19.037Z,54.30
2019-01-04T09:04:47.473Z,54.20
2019-01-04T09:07:15.926Z,54.60
2019-01-04T09:09:44.380Z,52.90
2019-01-04T09:12:12.817Z,53.80
2019-01-04T09:14:41.273Z,52.70
2019-01-04T09:17:09.721Z,53.40
2019-01-04T09:19:38.165Z,50.70
2019-01-04T09:22:06.613Z,51.60
2019-01-04T09:24:35.148Z,52.80
2019-01-04T09:27:03.581Z,52.90
2019-01-04T09:29:32.035Z,50.10
2019-01-04T09:32:00.557Z,49.70
2019-01-04T09:34:29.002Z,50.50
2019-01-04T09:36:57.510Z,51.20
2019-01-04T09:39:26.838Z,50.20
2019-01-04T09:41:55.780Z,49.40
2019-01-04T09:44:24.229Z,51.10
2019-01-04T09:46:52.674Z,50.70
2019-01-04T09:49:21.126Z,50.20
2019-01-04T09:51:49.562Z,49.60
2019-01-04T09:54:17.998Z,49.00
2019-01-04T09:56:46.452Z,51.00
2019-01-04T09:59:14.884Z,51.00
2019-01-04T10:01:43.322Z,49.10
2019-01-04T10:04:11.784Z,47.70
2019-01-04T10:06:40.217Z,49.90
2019-01-04T10:09:08.686Z,49.70
2019-01-04T10:11:37.121Z,51.60
2019-01-04T10:14:05.626Z,50.90
2019-01-04T10:16:34.144Z,51.20
2019-01-04T10:19:02.661Z,49.30
2019-01-04T10:21:31.112Z,49.30
2019-01-04T10:23:59.569Z,50.40
2019-01-04T10:26:28.002Z,49.90
2019-01-04T10:28:56.449Z,51.20
2019-01-04T10:31:24.902Z,47.30
2019-01-04T10:33:53.338Z,48.30
2019-01-04T10:36:21.793Z,50.10
2019-01-04T10:38:50.230Z,51.10
2019-01-04T10:41:18.678Z,49.80
2019-01-04T10:43:47.121Z,48.60
2019-01-04T10:46:15.562Z,48.30
2019-01-04T10:48:44.001Z,47.80
2019-01-04T10:51:12.441Z,49.10
2019-01-04T10:53:40.881Z,48.10
2019-01-04T10:56:09.318Z,48.40
2019-01-04T10:58:38.036Z,49.40
2019-01-04T11:01:06.465Z,48.40
2019-01-04T11:03:34.897Z,47.70
2019-01-04T11:06:03.346Z,49.10
2019-01-04T11:08:31.799Z,47.90
2019-01-04T11:11:00.245Z,47.30
2019-01-04T11:13:28.699Z,47.40
2019-01-04T11:15:57.222Z,46.50
2019-01-04T11:18:25.664Z,48.40
2019-01-04T11:20:54.310Z,47.00
2019-01-04T11:23:46.849Z,48.00
2019-01-04T11:26:18.364Z,48.40
2019-01-04T11:28:58.742Z,50.50
2019-01-04T11:31:32.946Z,48.70
2019-01-04T11:34:16.190Z,48.40
2019-01-04T11:36:56.386Z,49.90
2019-01-04T11:39:27.920Z,49.20
2019-01-04T11:42:14.586Z,48.50
2019-01-04T11:45:20.957Z,49.30
2019-01-04T11:48:10.142Z,48.30
2019-01-04T11:50:44.354Z,48.20
2019-01-04T11:53:15.033Z,48.50
2019-01-04T11:55:43.495Z,49.50
2019-01-04T11:58:11.938Z,49.80
2019-01-04T12:00:40.391Z,49.50
2019-01-04T12:03:08.825Z,48.90
2019-01-04T12:05:37.277Z,48.30
2019-01-04T12:08:05.736Z,48.80
2019-01-04T12:10:34.169Z,49.10
2019-01-04T12:13:02.627Z,48.50
2019-01-04T12:15:31.154Z,47.80
2019-01-04T12:17:59.617Z,48.70
2019-01-04T12:20:28.048Z,49.30
2019-01-04T12:22:56.485Z,49.30
2019-01-04T12:25:24.944Z,49.20
2019-01-04T12:27:53.382Z,49.40
2019-01-04T12:30:21.838Z,49.60
2019-01-04T12:32:50.270Z,50.70
2019-01-04T12:35:18.721Z,50.80
2019-01-04T12:37:47.173Z,50.60
2019-01-04T12:40:15.848Z,50.60
2019-01-04T12:42:44.308Z,49.60
2019-01-04T12:45:12.809Z,50.00
2019-01-04T12:47:41.261Z,50.10
2019-01-04T12:50:09.776Z,50.10
2019-01-04T12:52:38.225Z,49.80
2019-01-04T12:55:06.733Z,49.60
2019-01-04T12:57:35.188Z,49.50
2019-01-04T13:00:05.742Z,49.70
2019-01-04T13:02:34.173Z,49.90
2019-01-04T13:05:02.795Z,51.00
2019-01-04T13:07:31.325Z,50.50
2019-01-04T13:09:59.770Z,50.70
2019-01-04T13:12:28.222Z,50.30
2019-01-04T13:14:56.669Z,50.40
2019-01-04T13:17:25.118Z,50.60
2019-01-04T13:19:53.561Z,51.40
2019-01-04T13:22:22.020Z,52.40
2019-01-04T13:24:50.453Z,51.70
2019-01-04T13:27:18.906Z,52.00
2019-01-04T13:29:47.354Z,50.90
2019-01-04T13:32:15.785Z,51.00
2019-01-04T13:34:44.242Z,51.30
2019-01-04T13:37:12.745Z,51.50
2019-01-04T13:39:41.194Z,50.90
2019-01-04T13:42:09.630Z,51.10
2019-01-04T13:44:38.150Z,51.60
2019-01-04T13:47:06.578Z,50.70
2019-01-04T13:49:35.013Z,50.60
2019-01-04T13:52:03.461Z,51.50
2019-01-04T13:54:31.907Z,51.90
2019-01-04T13:57:00.353Z,51.00
2019-01-04T13:59:28.808Z,52.20
2019-01-04T14:01:57.242Z,52.00
2019-01-04T14:04:25.692Z,52.90
2019-01-04T14:06:54.124Z,51.10
2019-01-04T14:09:22.576Z,50.60
2019-01-04T14:11:51.886Z,51.40
2019-01-04T14:14:20.345Z,51.00
2019-01-04T14:16:48.777Z,50.00
2019-01-04T14:19:17.231Z,50.90
2019-01-04T14:21:45.670Z,51.20
2019-01-04T14:24:14.115Z,52.20
2019-01-04T14:26:42.558Z,52.50
2019-01-04T14:29:10.998Z,51.60
2019-01-04T14:31:39.448Z,51.90
2019-01-04T14:34:07.878Z,52.10
2019-01-04T14:36:36.329Z,53.20
2019-01-04T14:39:06.674Z,53.50
2019-01-04T14:41:35.120Z,54.70
2019-01-04T14:44:03.577Z,54.50
2019-01-04T14:46:32.087Z,56.20
2019-01-04T14:49:00.534Z,56.10
2019-01-04T14:51:28.982Z,55.90
2019-01-04T14:53:57.501Z,56.20
2019-01-04T14:56:25.953Z,55.60
2019-01-04T14:58:54.391Z,54.50
2019-01-04T15:01:22.837Z,54.20
2019-01-04T15:03:51.274Z,56.30
2019-01-04T15:06:19.725Z,57.10
2019-01-04T15:08:48.162Z,59.40
2019-01-04T15:11:16.598Z,60.00
2019-01-04T15:13:45.046Z,60.60
2019-01-04T15:16:13.533Z,61.50
2019-01-04T15:18:41.982Z,64.50
2019-01-04T15:21:10.413Z,65.70
2019-01-04T15:23:38.864Z,65.10
2019-01-04T15:26:07.311Z,67.00
2019-01-04T15:28:35.745Z,65.50
2019-01-04T15:31:04.266Z,62.30
2019-01-04T15:33:32.782Z,64.00
2019-01-04T15:36:01.234Z,70.60
2019-01-04T15:38:35.972Z,81.50
2019-01-04T15:40:59.934Z,86.70
2019-01-04T15:43:28.389Z,89.30
2019-01-04T15:45:56.838Z,85.90
2019-01-04T15:48:25.297Z,83.00
2019-01-04T15:50:53.739Z,85.00
2019-01-04T15:53:22.180Z,78.60
2019-01-04T15:55:50.634Z,76.80
2019-01-04T15:58:19.086Z,90.00
2019-01-04T16:00:47.539Z,89.80
2019-01-04T16:03:15.981Z,95.80
2019-01-04T16:05:44.433Z,91.90
2019-01-04T16:08:12.893Z,93.40
2019-01-04T16:10:41.348Z,95.30
2019-01-04T16:13:09.797Z,95.20
2019-01-04T16:15:38.237Z,99.40
2019-01-04T16:18:06.834Z,99.40
2019-01-04T16:20:35.282Z,97.00
2019-01-04T16:23:03.790Z,98.30
2019-01-04T16:25:32.240Z,99.60
2019-01-04T16:28:00.681Z,99.40
2019-01-04T16:30:29.137Z,98.50
2019-01-04T16:32:57.598Z,98.20
2019-01-04T16:35:26.110Z,92.90
2019-01-04T16:37:54.561Z,88.80
2019-01-04T16:40:23.002Z,86.90
2019-01-04T16:42:51.455Z,88.00
2019-01-04T16:45:19.899Z,85.00
2019-01-04T16:47:48.354Z,85.20
2019-01-04T16:50:16.840Z,90.00
2019-01-04T16:52:45.289Z,88.60
2019-01-04T16:55:13.884Z,83.60
2019-01-04T16:57:42.374Z,84.70
2019-01-04T17:00:11.386Z,90.90
2019-01-04T17:02:39.838Z,92.20
2019-01-04T17:05:08.515Z,95.30
2019-01-04T17:07:36.950Z,95.90
2019-01-04T17:10:06.229Z,96.70
2019-01-04T17:12:34.694Z,99.60
2019-01-04T17:15:03.391Z,99.90
2019-01-04T17:17:31.849Z,99.90
2019-01-04T17:20:00.368Z,99.20
2019-01-04T17:22:28.830Z,98.50
2019-01-04T17:24:57.270Z,99.90
2019-01-04T17:27:25.729Z,99.90
2019-01-04T17:29:54.186Z,99.90
2019-01-04T17:32:22.629Z,99.90
2019-01-04T17:34:51.074Z,99.90
2019-01-04T17:37:19.534Z,99.90
2019-01-04T17:39:47.974Z,99.90
2019-01-04T17:42:16.416Z,99.90
2019-01-04T17:44:44.880Z,99.90
2019-01-04T17:47:13.325Z,99.90
2019-01-04T17:49:41.778Z,99.90
2019-01-04T17:52:10.225Z,99.90
2019-01-04T17:54:38.665Z,99.90
2019-01-04T17:57:07.189Z,99.90
2019-01-04T17:59:35.637Z,99.90
2019-01-04T18:02:04.174Z,99.90
2019-01-04T18:04:32.624Z,99.90
2019-01-04T18:07:01.145Z,99.90
2019-01-04T18:09:29.589Z,99.90
2019-01-04T18:11:58.055Z,99.90
2019-01-04T18:14:26.496Z,99.90
2019-01-04T18:16:54.958Z,99.90
2019-01-04T18:19:23.413Z,99.90
2019-01-04T18:21:51.854Z,99.90
2019-01-04T18:24:20.356Z,99.90
2019-01-04T18:26:48.846Z,99.90
2019-01-04T18:29:17.314Z,99.90
2019-01-04T18:31:45.774Z,99.90
2019-01-04T18:34:14.233Z,99.90
2019-01-04T18:36:42.675Z,99.90
2019-01-04T18:39:11.135Z,99.90
2019-01-04T18:41:39.652Z,99.90
2019-01-04T18:44:08.106Z,99.90
2019-01-04T18:46:36.630Z,99.90
2019-01-04T18:49:05.142Z,99.90
2019-01-04T18:51:33.599Z,99.90
2019-01-04T18:54:02.069Z,99.90
2019-01-04T18:56:30.517Z,99.90
2019-01-04T18:58:58.966Z,99.90
2019-01-04T19:01:27.437Z,99.90
2019-01-04T19:03:55.895Z,99.90
2019-01-04T19:06:24.360Z,99.90
2019-01-04T19:08:52.876Z,99.90
2019-01-04T19:11:22.398Z,99.90
2019-01-04T19:13:50.841Z,99.90
2019-01-04T19:16:19.297Z,99.90
2019-01-04T19:18:47.738Z,99.90
2019-01-04T19:21:16.205Z,99.90
2019-01-04T19:23:44.642Z,99.90
2019-01-04T19:26:13.096Z,99.90
2019-01-04T19:28:41.561Z,99.90
2019-01-04T19:31:10.010Z,99.90
2019-01-04T19:33:38.468Z,99.90
2019-01-04T19:36:06.974Z,99.90
2019-01-04T19:38:35.493Z,99.90
2019-01-04T19:41:04.002Z,99.90
2019-01-04T19:43:32.463Z,99.90
2019-01-04T19:46:00.909Z,99.90
2019-01-04T19:48:29.373Z,99.90
2019-01-04T19:50:57.889Z,99.90
2019-01-04T19:53:26.406Z,99.90
2019-01-04T19:55:54.853Z,99.90
2019-01-04T19:58:23.318Z,99.90
2019-01-04T20:00:51.994Z,99.90
2019-01-04T20:03:20.437Z,99.90
2019-01-04T20:06:25.530Z,99.90
2019-01-04T20:09:26.016Z,99.90
2019-01-04T20:12:36.969Z,99.90
2019-01-04T20:15:33.646Z,99.90
2019-01-04T20:18:03.978Z,99.90
2019-01-04T20:20:46.127Z,99.90
2019-01-04T20:23:32.747Z,99.90
2019-01-04T20:26:02.915Z,99.90
2019-01-04T20:28:33.142Z,99.90
2019-01-04T20:31:03.240Z,99.90
2019-01-04T20:33:36.050Z,99.90
2019-01-04T20:36:09.087Z,99.90
2019-01-04T20:38:51.450Z,99.90
2019-01-04T20:41:38.102Z,99.90
2019-01-04T20:44:20.181Z,99.90
2019-01-04T20:47:05.130Z,99.90
2019-01-04T20:49:51.220Z,99.90
2019-01-04T20:52:30.259Z,99.90
2019-01-04T20:55:00.377Z,99.90
2019-01-04T20:57:36.605Z,99.90
2019-01-04T21:00:11.577Z,99.90
2019-01-04T21:02:44.868Z,99.90
2019-01-04T21:05:27.494Z,99.90
2019-01-04T21:08:09.950Z,99.90
2019-01-04T21:10:42.826Z,99.90
2019-01-04T21:13:28.929Z,99.90
2019-01-04T21:16:17.348Z,99.90
2019-01-04T21:19:03.962Z,99.90
2019-01-04T21:21:36.855Z,99.90
2019-01-04T21:24:10.134Z,99.90
2019-01-04T21:26:43.214Z,99.90
2019-01-04T21:29:22.526Z,99.90
2019-01-04T21:31:58.597Z,99.90
2019-01-04T21:34:31.394Z,99.90
2019-01-04T21:37:17.805Z,99.90
2019-01-04T21:39:50.573Z,99.90
2019-01-04T21:42:30.168Z,99.90
2019-01-04T21:45:02.789Z,99.90
2019-01-04T21:47:35.785Z,99.90
2019-01-04T21:50:09.108Z,99.90
2019-01-04T21:52:42.194Z,99.90
2019-01-04T21:55:14.969Z,99.90
2019-01-04T21:58:03.271Z,99.90
2019-01-04T22:00:42.345Z,99.90
2019-01-04T22:03:21.277Z,99.90
2019-01-04T22:05:54.365Z,99.90
2019-01-04T22:08:33.595Z,99.90
2019-01-04T22:11:20.256Z,99.90
2019-01-04T22:13:53.184Z,99.90
2019-01-04T22:16:26.256Z,99.90
2019-01-04T22:18:56.345Z,99.90
2019-01-04T22:21:38.310Z,99.90
2019-01-04T22:24:24.630Z,99.90
2019-01-04T22:27:11.329Z,99.90
2019-01-04T22:29:53.691Z,99.90
2019-01-04T22:32:23.802Z,99.90
2019-01-04T22:35:10.189Z,99.90
2019-01-04T22:37:55.330Z,99.90
2019-01-04T22:40:31.197Z,99.90
2019-01-04T22:43:07.557Z,99.90
2019-01-04T22:45:47.034Z,99.90
2019-01-04T22:48:17.126Z,99.90
2019-01-04T22:50:47.212Z,99.90
2019-01-04T22:53:17.313Z,99.90
2019-01-04T22:55:53.315Z,99.90
2019-01-04T22:58:35.597Z,99.90
2019-01-04T23:01:05.921Z,99.90
2019-01-04T23:03:36.030Z,99.90
2019-01-04T23:06:22.330Z,99.90
2019-01-04T23:09:01.156Z,99.90
2019-01-04T23:11:47.488Z,99.90
2019-01-04T23:14:20.469Z,99.90
2019-01-04T23:17:02.638Z,99.90
2019-01-04T23:19:32.721Z,99.90
2019-01-04T23:22:02.902Z,99.90
2019-01-04T23:24:45.261Z,99.90
2019-01-04T23:27:32.133Z,99.90
2019-01-04T23:30:18.811Z,99.90
2019-01-04T23:32:51.870Z,99.90
2019-01-04T23:35:37.325Z,99.90
2019-01-04T23:38:25.609Z,99.90
2019-01-04T23:40:58.405Z,99.90
2019-01-04T23:43:34.565Z,99.90
2019-01-04T23:46:07.770Z,99.90
2019-01-04T23:48:41.170Z,99.90
2019-01-04T23:51:11.405Z,99.90
2019-01-04T23:53:50.531Z,99.90
2019-01-04T23:56:20.621Z,99.90
2019-01-04T23:58:50.726Z,99.90
